sensor_id;sensor_type;location;lat;lon;timestamp;P1;durP1;ratioP1;P2;durP2;ratioP2
67839;SDS011;54636;51.684;5.142;2023-07-29T00:00:38;9.52;;;5.13;;
67839;SDS011;54636;51.684;5.142;2023-07-29T00:03:04;4.60;;;4.20;;
67839;SDS011;54636;51.684;5.142;2023-07-29T00:05:30;5.30;;;4.75;;
67839;SDS011;54636;51.684;5.142;2023-07-29T00:07:55;8.70;;;5.15;;
67839;SDS011;54636;51.684;5.142;2023-07-29T00:10:21;6.30;;;4.22;;
67839;SDS011;54636;51.684;5.142;2023-07-29T00:12:46;6.03;;;4.63;;
67839;SDS011;54636;51.684;5.142;2023-07-29T00:15:11;7.65;;;4.43;;
67839;SDS011;54636;51.684;5.142;2023-07-29T00:17:37;15.85;;;6.35;;
67839;SDS011;54636;51.684;5.142;2023-07-29T00:20:02;11.25;;;4.70;;
67839;SDS011;54636;51.684;5.142;2023-07-29T00:22:28;5.72;;;5.22;;
67839;SDS011;54636;51.684;5.142;2023-07-29T00:24:54;5.15;;;4.72;;
67839;SDS011;54636;51.684;5.142;2023-07-29T00:27:20;5.90;;;4.65;;
67839;SDS011;54636;51.684;5.142;2023-07-29T00:29:46;7.32;;;4.60;;
67839;SDS011;54636;51.684;5.142;2023-07-29T00:32:12;7.25;;;4.57;;
67839;SDS011;54636;51.684;5.142;2023-07-29T00:34:37;8.50;;;4.65;;
67839;SDS011;54636;51.684;5.142;2023-07-29T00:37:02;4.95;;;4.47;;
67839;SDS011;54636;51.684;5.142;2023-07-29T00:39:28;7.45;;;4.72;;
67839;SDS011;54636;51.684;5.142;2023-07-29T00:41:53;8.10;;;4.85;;
67839;SDS011;54636;51.684;5.142;2023-07-29T00:44:19;5.35;;;4.85;;
67839;SDS011;54636;51.684;5.142;2023-07-29T00:46:45;8.30;;;4.70;;
67839;SDS011;54636;51.684;5.142;2023-07-29T00:49:12;6.32;;;4.78;;
67839;SDS011;54636;51.684;5.142;2023-07-29T00:51:37;7.07;;;5.18;;
67839;SDS011;54636;51.684;5.142;2023-07-29T00:54:03;7.65;;;5.88;;
67839;SDS011;54636;51.684;5.142;2023-07-29T00:56:28;11.23;;;4.68;;
67839;SDS011;54636;51.684;5.142;2023-07-29T00:58:54;6.60;;;5.40;;
67839;SDS011;54636;51.684;5.142;2023-07-29T01:01:24;12.52;;;5.15;;
67839;SDS011;54636;51.684;5.142;2023-07-29T01:03:50;5.35;;;4.50;;
67839;SDS011;54636;51.684;5.142;2023-07-29T01:06:23;7.05;;;4.43;;
67839;SDS011;54636;51.684;5.142;2023-07-29T01:09:09;6.60;;;4.65;;
67839;SDS011;54636;51.684;5.142;2023-07-29T01:14:36;7.28;;;3.30;;
67839;SDS011;54636;51.684;5.142;2023-07-29T01:17:23;4.60;;;3.50;;
67839;SDS011;54636;51.684;5.142;2023-07-29T01:22:48;3.70;;;2.83;;
67839;SDS011;54636;51.684;5.142;2023-07-29T01:25:13;7.95;;;3.20;;
67839;SDS011;54636;51.684;5.142;2023-07-29T01:27:39;4.55;;;3.05;;
67839;SDS011;54636;51.684;5.142;2023-07-29T01:30:07;3.00;;;2.65;;
67839;SDS011;54636;51.684;5.142;2023-07-29T01:35:19;3.35;;;2.80;;
67839;SDS011;54636;51.684;5.142;2023-07-29T01:37:48;2.97;;;2.75;;
67839;SDS011;54636;51.684;5.142;2023-07-29T01:40:16;2.78;;;2.58;;
67839;SDS011;54636;51.684;5.142;2023-07-29T01:42:43;4.38;;;2.47;;
67839;SDS011;54636;51.684;5.142;2023-07-29T01:45:10;4.72;;;2.60;;
67839;SDS011;54636;51.684;5.142;2023-07-29T01:47:36;3.58;;;2.53;;
67839;SDS011;54636;51.684;5.142;2023-07-29T01:50:03;3.17;;;2.60;;
67839;SDS011;54636;51.684;5.142;2023-07-29T01:52:29;2.85;;;2.60;;
67839;SDS011;54636;51.684;5.142;2023-07-29T01:54:54;3.10;;;2.90;;
67839;SDS011;54636;51.684;5.142;2023-07-29T01:57:19;4.47;;;3.17;;
67839;SDS011;54636;51.684;5.142;2023-07-29T01:59:45;5.03;;;3.00;;
67839;SDS011;54636;51.684;5.142;2023-07-29T02:02:10;3.05;;;2.85;;
67839;SDS011;54636;51.684;5.142;2023-07-29T02:04:38;2.88;;;2.67;;
67839;SDS011;54636;51.684;5.142;2023-07-29T02:07:03;4.85;;;2.70;;
67839;SDS011;54636;51.684;5.142;2023-07-29T02:09:29;2.75;;;2.50;;
67839;SDS011;54636;51.684;5.142;2023-07-29T02:11:56;4.50;;;2.63;;
67839;SDS011;54636;51.684;5.142;2023-07-29T02:14:22;4.30;;;3.03;;
67839;SDS011;54636;51.684;5.142;2023-07-29T02:16:47;2.97;;;2.70;;
67839;SDS011;54636;51.684;5.142;2023-07-29T02:19:13;2.33;;;2.00;;
67839;SDS011;54636;51.684;5.142;2023-07-29T02:21:38;6.70;;;2.63;;
67839;SDS011;54636;51.684;5.142;2023-07-29T02:24:04;3.45;;;2.95;;
67839;SDS011;54636;51.684;5.142;2023-07-29T02:26:29;2.25;;;2.13;;
67839;SDS011;54636;51.684;5.142;2023-07-29T02:28:55;2.75;;;2.30;;
67839;SDS011;54636;51.684;5.142;2023-07-29T02:31:21;4.72;;;2.28;;
67839;SDS011;54636;51.684;5.142;2023-07-29T02:33:50;2.88;;;2.40;;
67839;SDS011;54636;51.684;5.142;2023-07-29T02:36:18;2.13;;;2.00;;
67839;SDS011;54636;51.684;5.142;2023-07-29T02:38:44;2.90;;;2.40;;
67839;SDS011;54636;51.684;5.142;2023-07-29T02:41:09;3.97;;;2.50;;
67839;SDS011;54636;51.684;5.142;2023-07-29T02:43:37;2.33;;;2.22;;
67839;SDS011;54636;51.684;5.142;2023-07-29T02:46:02;2.40;;;2.20;;
67839;SDS011;54636;51.684;5.142;2023-07-29T02:48:28;7.20;;;2.22;;
67839;SDS011;54636;51.684;5.142;2023-07-29T02:50:54;2.38;;;2.17;;
67839;SDS011;54636;51.684;5.142;2023-07-29T02:53:19;3.83;;;2.00;;
67839;SDS011;54636;51.684;5.142;2023-07-29T02:55:45;2.13;;;2.03;;
67839;SDS011;54636;51.684;5.142;2023-07-29T02:58:10;2.95;;;2.10;;
67839;SDS011;54636;51.684;5.142;2023-07-29T03:00:36;4.90;;;2.03;;
67839;SDS011;54636;51.684;5.142;2023-07-29T03:03:01;2.60;;;1.98;;
67839;SDS011;54636;51.684;5.142;2023-07-29T03:05:27;2.05;;;1.80;;
67839;SDS011;54636;51.684;5.142;2023-07-29T03:07:52;4.28;;;2.00;;
67839;SDS011;54636;51.684;5.142;2023-07-29T03:10:18;2.75;;;1.80;;
67839;SDS011;54636;51.684;5.142;2023-07-29T03:12:43;2.13;;;1.98;;
67839;SDS011;54636;51.684;5.142;2023-07-29T03:15:09;7.25;;;2.20;;
67839;SDS011;54636;51.684;5.142;2023-07-29T03:17:34;1.92;;;1.80;;
67839;SDS011;54636;51.684;5.142;2023-07-29T03:20:00;2.75;;;1.73;;
67839;SDS011;54636;51.684;5.142;2023-07-29T03:22:25;2.03;;;1.80;;
67839;SDS011;54636;51.684;5.142;2023-07-29T03:24:50;2.75;;;2.00;;
67839;SDS011;54636;51.684;5.142;2023-07-29T03:27:16;1.90;;;1.50;;
67839;SDS011;54636;51.684;5.142;2023-07-29T03:29:41;2.05;;;1.60;;
67839;SDS011;54636;51.684;5.142;2023-07-29T03:32:07;4.07;;;2.20;;
67839;SDS011;54636;51.684;5.142;2023-07-29T03:34:33;2.10;;;1.90;;
67839;SDS011;54636;51.684;5.142;2023-07-29T03:36:59;2.88;;;1.80;;
67839;SDS011;54636;51.684;5.142;2023-07-29T03:39:25;2.17;;;1.80;;
67839;SDS011;54636;51.684;5.142;2023-07-29T03:41:51;4.85;;;1.85;;
67839;SDS011;54636;51.684;5.142;2023-07-29T03:44:16;1.90;;;1.80;;
67839;SDS011;54636;51.684;5.142;2023-07-29T03:46:43;2.58;;;2.38;;
67839;SDS011;54636;51.684;5.142;2023-07-29T03:49:09;4.50;;;2.10;;
67839;SDS011;54636;51.684;5.142;2023-07-29T03:51:34;3.25;;;2.15;;
67839;SDS011;54636;51.684;5.142;2023-07-29T03:54:00;2.88;;;2.00;;
67839;SDS011;54636;51.684;5.142;2023-07-29T03:56:25;4.20;;;2.70;;
67839;SDS011;54636;51.684;5.142;2023-07-29T03:58:51;2.88;;;2.15;;
67839;SDS011;54636;51.684;5.142;2023-07-29T04:01:17;3.67;;;2.72;;
67839;SDS011;54636;51.684;5.142;2023-07-29T04:03:44;2.45;;;2.25;;
67839;SDS011;54636;51.684;5.142;2023-07-29T04:06:10;4.00;;;2.78;;
67839;SDS011;54636;51.684;5.142;2023-07-29T04:08:35;9.18;;;2.90;;
67839;SDS011;54636;51.684;5.142;2023-07-29T04:11:01;2.75;;;2.55;;
67839;SDS011;54636;51.684;5.142;2023-07-29T04:13:26;2.90;;;2.70;;
67839;SDS011;54636;51.684;5.142;2023-07-29T04:15:51;2.92;;;2.67;;
67839;SDS011;54636;51.684;5.142;2023-07-29T04:18:17;4.07;;;3.30;;
67839;SDS011;54636;51.684;5.142;2023-07-29T04:20:42;7.60;;;3.42;;
67839;SDS011;54636;51.684;5.142;2023-07-29T04:23:08;5.32;;;3.20;;
67839;SDS011;54636;51.684;5.142;2023-07-29T04:25:34;3.00;;;2.78;;
67839;SDS011;54636;51.684;5.142;2023-07-29T04:27:59;4.93;;;3.60;;
67839;SDS011;54636;51.684;5.142;2023-07-29T04:30:25;4.32;;;3.55;;
67839;SDS011;54636;51.684;5.142;2023-07-29T04:32:50;3.55;;;3.28;;
67839;SDS011;54636;51.684;5.142;2023-07-29T04:35:16;5.65;;;3.80;;
67839;SDS011;54636;51.684;5.142;2023-07-29T04:37:41;4.85;;;3.90;;
67839;SDS011;54636;51.684;5.142;2023-07-29T04:40:06;3.33;;;3.13;;
67839;SDS011;54636;51.684;5.142;2023-07-29T04:42:32;4.00;;;3.50;;
67839;SDS011;54636;51.684;5.142;2023-07-29T04:44:58;4.40;;;3.20;;
67839;SDS011;54636;51.684;5.142;2023-07-29T04:47:23;4.80;;;3.50;;
67839;SDS011;54636;51.684;5.142;2023-07-29T04:49:49;3.63;;;3.42;;
67839;SDS011;54636;51.684;5.142;2023-07-29T04:52:14;4.18;;;3.40;;
67839;SDS011;54636;51.684;5.142;2023-07-29T04:54:42;4.15;;;3.70;;
67839;SDS011;54636;51.684;5.142;2023-07-29T04:57:08;4.57;;;3.58;;
67839;SDS011;54636;51.684;5.142;2023-07-29T04:59:33;3.65;;;3.35;;
67839;SDS011;54636;51.684;5.142;2023-07-29T05:02:02;6.47;;;3.60;;
67839;SDS011;54636;51.684;5.142;2023-07-29T05:04:27;6.32;;;3.75;;
67839;SDS011;54636;51.684;5.142;2023-07-29T05:06:52;7.05;;;3.65;;
67839;SDS011;54636;51.684;5.142;2023-07-29T05:09:18;4.40;;;3.65;;
67839;SDS011;54636;51.684;5.142;2023-07-29T05:11:45;3.75;;;3.42;;
67839;SDS011;54636;51.684;5.142;2023-07-29T05:14:11;9.43;;;3.85;;
67839;SDS011;54636;51.684;5.142;2023-07-29T05:16:38;5.22;;;3.80;;
67839;SDS011;54636;51.684;5.142;2023-07-29T05:19:03;4.93;;;3.50;;
67839;SDS011;54636;51.684;5.142;2023-07-29T05:21:29;4.10;;;3.70;;
67839;SDS011;54636;51.684;5.142;2023-07-29T05:23:54;4.80;;;3.50;;
67839;SDS011;54636;51.684;5.142;2023-07-29T05:26:21;4.97;;;3.88;;
67839;SDS011;54636;51.684;5.142;2023-07-29T05:28:47;4.70;;;3.58;;
67839;SDS011;54636;51.684;5.142;2023-07-29T05:31:13;5.55;;;3.95;;
67839;SDS011;54636;51.684;5.142;2023-07-29T05:33:38;4.13;;;3.65;;
67839;SDS011;54636;51.684;5.142;2023-07-29T05:36:04;6.18;;;3.90;;
67839;SDS011;54636;51.684;5.142;2023-07-29T05:38:30;3.72;;;3.42;;
67839;SDS011;54636;51.684;5.142;2023-07-29T05:40:55;4.38;;;3.28;;
67839;SDS011;54636;51.684;5.142;2023-07-29T05:43:21;3.75;;;3.38;;
67839;SDS011;54636;51.684;5.142;2023-07-29T05:45:46;6.25;;;3.55;;
67839;SDS011;54636;51.684;5.142;2023-07-29T05:48:12;4.57;;;3.30;;
67839;SDS011;54636;51.684;5.142;2023-07-29T05:50:37;5.47;;;3.42;;
67839;SDS011;54636;51.684;5.142;2023-07-29T05:53:02;3.85;;;3.15;;
67839;SDS011;54636;51.684;5.142;2023-07-29T05:55:30;3.60;;;3.20;;
67839;SDS011;54636;51.684;5.142;2023-07-29T05:57:56;7.13;;;3.70;;
67839;SDS011;54636;51.684;5.142;2023-07-29T06:00:22;4.82;;;3.35;;
67839;SDS011;54636;51.684;5.142;2023-07-29T06:02:48;3.72;;;3.42;;
67839;SDS011;54636;51.684;5.142;2023-07-29T06:05:13;4.60;;;3.88;;
67839;SDS011;54636;51.684;5.142;2023-07-29T06:07:39;3.80;;;3.50;;
67839;SDS011;54636;51.684;5.142;2023-07-29T06:10:09;4.20;;;3.70;;
67839;SDS011;54636;51.684;5.142;2023-07-29T06:12:36;4.60;;;3.40;;
67839;SDS011;54636;51.684;5.142;2023-07-29T06:15:02;4.88;;;3.30;;
67839;SDS011;54636;51.684;5.142;2023-07-29T06:17:28;4.20;;;3.58;;
67839;SDS011;54636;51.684;5.142;2023-07-29T06:19:53;3.50;;;3.20;;
67839;SDS011;54636;51.684;5.142;2023-07-29T06:22:18;5.28;;;2.90;;
67839;SDS011;54636;51.684;5.142;2023-07-29T06:24:44;4.03;;;3.50;;
67839;SDS011;54636;51.684;5.142;2023-07-29T06:27:09;4.28;;;3.17;;
67839;SDS011;54636;51.684;5.142;2023-07-29T06:29:35;2.95;;;2.75;;
67839;SDS011;54636;51.684;5.142;2023-07-29T06:32:00;5.07;;;3.13;;
67839;SDS011;54636;51.684;5.142;2023-07-29T06:34:25;3.65;;;2.50;;
67839;SDS011;54636;51.684;5.142;2023-07-29T06:36:51;3.13;;;2.70;;
67839;SDS011;54636;51.684;5.142;2023-07-29T06:39:16;4.57;;;2.97;;
67839;SDS011;54636;51.684;5.142;2023-07-29T06:41:42;3.30;;;2.70;;
67839;SDS011;54636;51.684;5.142;2023-07-29T06:44:07;3.00;;;2.67;;
67839;SDS011;54636;51.684;5.142;2023-07-29T06:46:32;3.75;;;3.03;;
67839;SDS011;54636;51.684;5.142;2023-07-29T06:48:58;2.97;;;2.67;;
67839;SDS011;54636;51.684;5.142;2023-07-29T06:51:23;3.08;;;2.78;;
67839;SDS011;54636;51.684;5.142;2023-07-29T06:53:48;6.43;;;3.10;;
67839;SDS011;54636;51.684;5.142;2023-07-29T06:56:14;4.00;;;2.45;;
67839;SDS011;54636;51.684;5.142;2023-07-29T06:58:39;3.22;;;2.70;;
67839;SDS011;54636;51.684;5.142;2023-07-29T07:01:05;2.70;;;2.50;;
67839;SDS011;54636;51.684;5.142;2023-07-29T07:03:30;3.22;;;3.03;;
67839;SDS011;54636;51.684;5.142;2023-07-29T07:05:55;4.93;;;3.00;;
67839;SDS011;54636;51.684;5.142;2023-07-29T07:08:21;3.03;;;2.50;;
67839;SDS011;54636;51.684;5.142;2023-07-29T07:10:46;4.85;;;2.20;;
67839;SDS011;54636;51.684;5.142;2023-07-29T07:13:12;8.68;;;2.33;;
67839;SDS011;54636;51.684;5.142;2023-07-29T07:15:38;2.78;;;2.30;;
67839;SDS011;54636;51.684;5.142;2023-07-29T07:18:03;6.32;;;2.40;;
67839;SDS011;54636;51.684;5.142;2023-07-29T07:20:29;1.98;;;1.88;;
67839;SDS011;54636;51.684;5.142;2023-07-29T07:22:57;3.22;;;2.20;;
67839;SDS011;54636;51.684;5.142;2023-07-29T07:25:22;2.80;;;2.60;;
67839;SDS011;54636;51.684;5.142;2023-07-29T07:27:48;2.53;;;2.22;;
67839;SDS011;54636;51.684;5.142;2023-07-29T07:30:13;4.10;;;2.22;;
67839;SDS011;54636;51.684;5.142;2023-07-29T07:32:39;2.40;;;1.80;;
67839;SDS011;54636;51.684;5.142;2023-07-29T07:35:04;2.15;;;1.83;;
67839;SDS011;54636;51.684;5.142;2023-07-29T07:37:30;5.85;;;1.80;;
67839;SDS011;54636;51.684;5.142;2023-07-29T07:39:55;2.78;;;1.85;;
67839;SDS011;54636;51.684;5.142;2023-07-29T07:42:21;2.47;;;1.95;;
67839;SDS011;54636;51.684;5.142;2023-07-29T07:44:46;6.47;;;2.00;;
67839;SDS011;54636;51.684;5.142;2023-07-29T07:47:12;2.20;;;2.03;;
67839;SDS011;54636;51.684;5.142;2023-07-29T07:49:37;4.63;;;2.28;;
67839;SDS011;54636;51.684;5.142;2023-07-29T07:52:02;3.85;;;1.77;;
67839;SDS011;54636;51.684;5.142;2023-07-29T07:54:28;3.97;;;2.30;;
67839;SDS011;54636;51.684;5.142;2023-07-29T07:56:53;3.05;;;2.03;;
67839;SDS011;54636;51.684;5.142;2023-07-29T07:59:19;2.70;;;2.03;;
67839;SDS011;54636;51.684;5.142;2023-07-29T08:01:44;2.25;;;2.15;;
67839;SDS011;54636;51.684;5.142;2023-07-29T08:04:10;3.65;;;2.05;;
67839;SDS011;54636;51.684;5.142;2023-07-29T08:06:35;7.15;;;1.95;;
67839;SDS011;54636;51.684;5.142;2023-07-29T08:09:00;4.95;;;2.38;;
67839;SDS011;54636;51.684;5.142;2023-07-29T08:11:26;3.63;;;1.90;;
67839;SDS011;54636;51.684;5.142;2023-07-29T08:13:52;2.05;;;1.80;;
67839;SDS011;54636;51.684;5.142;2023-07-29T08:16:17;2.85;;;1.65;;
67839;SDS011;54636;51.684;5.142;2023-07-29T08:18:42;2.38;;;1.50;;
67839;SDS011;54636;51.684;5.142;2023-07-29T08:21:08;2.17;;;1.98;;
67839;SDS011;54636;51.684;5.142;2023-07-29T08:23:34;1.98;;;1.80;;
67839;SDS011;54636;51.684;5.142;2023-07-29T08:26:04;3.22;;;1.48;;
67839;SDS011;54636;51.684;5.142;2023-07-29T08:28:34;2.28;;;1.45;;
67839;SDS011;54636;51.684;5.142;2023-07-29T08:31:01;2.50;;;1.48;;
67839;SDS011;54636;51.684;5.142;2023-07-29T08:33:27;1.98;;;1.70;;
67839;SDS011;54636;51.684;5.142;2023-07-29T08:35:53;2.35;;;1.85;;
67839;SDS011;54636;51.684;5.142;2023-07-29T08:38:19;1.65;;;1.55;;
67839;SDS011;54636;51.684;5.142;2023-07-29T08:40:49;2.10;;;1.90;;
67839;SDS011;54636;51.684;5.142;2023-07-29T08:43:19;3.70;;;2.03;;
67839;SDS011;54636;51.684;5.142;2023-07-29T08:45:46;2.15;;;1.85;;
67839;SDS011;54636;51.684;5.142;2023-07-29T08:48:11;5.95;;;1.88;;
67839;SDS011;54636;51.684;5.142;2023-07-29T08:50:41;1.73;;;1.63;;
67839;SDS011;54636;51.684;5.142;2023-07-29T08:53:09;4.28;;;1.48;;
67839;SDS011;54636;51.684;5.142;2023-07-29T08:55:35;2.28;;;1.55;;
67839;SDS011;54636;51.684;5.142;2023-07-29T08:58:01;2.40;;;1.40;;
67839;SDS011;54636;51.684;5.142;2023-07-29T09:00:29;2.28;;;2.03;;
67839;SDS011;54636;51.684;5.142;2023-07-29T09:02:54;1.20;;;1.10;;
67839;SDS011;54636;51.684;5.142;2023-07-29T09:05:21;2.78;;;1.40;;
67839;SDS011;54636;51.684;5.142;2023-07-29T09:07:47;1.38;;;1.27;;
67839;SDS011;54636;51.684;5.142;2023-07-29T09:10:13;2.75;;;1.40;;
67839;SDS011;54636;51.684;5.142;2023-07-29T09:12:39;4.68;;;1.40;;
67839;SDS011;54636;51.684;5.142;2023-07-29T09:15:08;3.03;;;1.30;;
67839;SDS011;54636;51.684;5.142;2023-07-29T09:17:34;1.10;;;1.10;;
67839;SDS011;54636;51.684;5.142;2023-07-29T09:19:59;1.30;;;1.20;;
67839;SDS011;54636;51.684;5.142;2023-07-29T09:22:26;1.58;;;1.02;;
67839;SDS011;54636;51.684;5.142;2023-07-29T09:24:52;1.90;;;1.17;;
67839;SDS011;54636;51.684;5.142;2023-07-29T09:27:24;2.85;;;1.30;;
67839;SDS011;54636;51.684;5.142;2023-07-29T09:29:56;2.73;;;1.40;;
67839;SDS011;54636;51.684;5.142;2023-07-29T09:32:22;2.65;;;0.90;;
67839;SDS011;54636;51.684;5.142;2023-07-29T09:34:50;1.42;;;1.30;;
67839;SDS011;54636;51.684;5.142;2023-07-29T09:37:22;1.17;;;1.08;;
67839;SDS011;54636;51.684;5.142;2023-07-29T09:39:48;1.38;;;1.30;;
67839;SDS011;54636;51.684;5.142;2023-07-29T09:42:18;5.45;;;1.45;;
67839;SDS011;54636;51.684;5.142;2023-07-29T09:44:45;1.30;;;1.10;;
67839;SDS011;54636;51.684;5.142;2023-07-29T09:47:18;1.67;;;1.20;;
67839;SDS011;54636;51.684;5.142;2023-07-29T09:49:47;1.27;;;1.20;;
67839;SDS011;54636;51.684;5.142;2023-07-29T09:52:14;1.05;;;1.00;;
67839;SDS011;54636;51.684;5.142;2023-07-29T09:54:43;1.95;;;1.20;;
67839;SDS011;54636;51.684;5.142;2023-07-29T09:57:10;1.15;;;1.05;;
67839;SDS011;54636;51.684;5.142;2023-07-29T09:59:42;1.38;;;1.30;;
67839;SDS011;54636;51.684;5.142;2023-07-29T10:02:15;3.50;;;1.13;;
67839;SDS011;54636;51.684;5.142;2023-07-29T10:04:42;1.35;;;1.25;;
67839;SDS011;54636;51.684;5.142;2023-07-29T10:07:08;2.58;;;1.23;;
67839;SDS011;54636;51.684;5.142;2023-07-29T10:09:36;1.40;;;1.40;;
67839;SDS011;54636;51.684;5.142;2023-07-29T10:12:02;1.92;;;1.30;;
67839;SDS011;54636;51.684;5.142;2023-07-29T10:14:31;0.93;;;0.93;;
67839;SDS011;54636;51.684;5.142;2023-07-29T10:16:56;2.83;;;1.08;;
67839;SDS011;54636;51.684;5.142;2023-07-29T10:19:22;1.02;;;1.00;;
67839;SDS011;54636;51.684;5.142;2023-07-29T10:21:50;0.90;;;0.90;;
67839;SDS011;54636;51.684;5.142;2023-07-29T10:24:18;3.15;;;1.27;;
67839;SDS011;54636;51.684;5.142;2023-07-29T10:26:49;1.27;;;1.02;;
67839;SDS011;54636;51.684;5.142;2023-07-29T10:29:15;1.10;;;1.10;;
67839;SDS011;54636;51.684;5.142;2023-07-29T10:31:44;1.35;;;1.17;;
67839;SDS011;54636;51.684;5.142;2023-07-29T10:34:11;1.45;;;1.30;;
67839;SDS011;54636;51.684;5.142;2023-07-29T10:36:38;1.73;;;1.40;;
67839;SDS011;54636;51.684;5.142;2023-07-29T10:39:07;1.95;;;1.30;;
67839;SDS011;54636;51.684;5.142;2023-07-29T10:47:24;1.50;;;1.40;;
67839;SDS011;54636;51.684;5.142;2023-07-29T10:49:55;1.92;;;1.60;;
67839;SDS011;54636;51.684;5.142;2023-07-29T10:52:29;1.50;;;1.40;;
67839;SDS011;54636;51.684;5.142;2023-07-29T10:55:01;2.13;;;1.50;;
67839;SDS011;54636;51.684;5.142;2023-07-29T10:57:35;4.78;;;1.88;;
67839;SDS011;54636;51.684;5.142;2023-07-29T11:00:04;3.05;;;1.40;;
67839;SDS011;54636;51.684;5.142;2023-07-29T11:02:31;1.20;;;1.10;;
67839;SDS011;54636;51.684;5.142;2023-07-29T11:04:58;1.05;;;1.05;;
67839;SDS011;54636;51.684;5.142;2023-07-29T11:07:27;1.88;;;1.30;;
67839;SDS011;54636;51.684;5.142;2023-07-29T11:15:19;1.60;;;1.50;;
67839;SDS011;54636;51.684;5.142;2023-07-29T11:17:50;1.85;;;1.75;;
67839;SDS011;54636;51.684;5.142;2023-07-29T11:20:24;2.83;;;2.22;;
67839;SDS011;54636;51.684;5.142;2023-07-29T11:22:52;5.40;;;1.75;;
67839;SDS011;54636;51.684;5.142;2023-07-29T11:25:19;2.00;;;1.67;;
67839;SDS011;54636;51.684;5.142;2023-07-29T11:27:46;2.95;;;2.08;;
67839;SDS011;54636;51.684;5.142;2023-07-29T11:30:12;2.72;;;2.17;;
67839;SDS011;54636;51.684;5.142;2023-07-29T11:32:40;2.47;;;2.03;;
67839;SDS011;54636;51.684;5.142;2023-07-29T11:35:11;4.47;;;2.30;;
67839;SDS011;54636;51.684;5.142;2023-07-29T11:37:45;3.72;;;2.03;;
67839;SDS011;54636;51.684;5.142;2023-07-29T11:40:15;6.97;;;2.53;;
67839;SDS011;54636;51.684;5.142;2023-07-29T11:42:41;3.15;;;2.38;;
67839;SDS011;54636;51.684;5.142;2023-07-29T11:45:07;3.25;;;2.33;;
67839;SDS011;54636;51.684;5.142;2023-07-29T11:47:34;4.78;;;2.40;;
67839;SDS011;54636;51.684;5.142;2023-07-29T11:50:02;5.05;;;2.53;;
67839;SDS011;54636;51.684;5.142;2023-07-29T11:52:29;2.70;;;2.33;;
67839;SDS011;54636;51.684;5.142;2023-07-29T11:54:58;3.78;;;2.60;;
67839;SDS011;54636;51.684;5.142;2023-07-29T11:57:23;4.60;;;3.05;;
67839;SDS011;54636;51.684;5.142;2023-07-29T11:59:49;7.50;;;3.20;;
67839;SDS011;54636;51.684;5.142;2023-07-29T12:02:17;3.60;;;2.90;;
67839;SDS011;54636;51.684;5.142;2023-07-29T12:04:46;7.10;;;2.47;;
67839;SDS011;54636;51.684;5.142;2023-07-29T12:07:12;2.40;;;2.20;;
67839;SDS011;54636;51.684;5.142;2023-07-29T12:09:39;5.25;;;2.40;;
67839;SDS011;54636;51.684;5.142;2023-07-29T12:12:08;3.07;;;2.20;;
67839;SDS011;54636;51.684;5.142;2023-07-29T12:14:34;2.15;;;1.95;;
67839;SDS011;54636;51.684;5.142;2023-07-29T12:17:03;1.60;;;1.50;;
67839;SDS011;54636;51.684;5.142;2023-07-29T12:22:00;1.52;;;1.42;;
67839;SDS011;54636;51.684;5.142;2023-07-29T12:24:29;2.28;;;1.50;;
67839;SDS011;54636;51.684;5.142;2023-07-29T12:29:24;1.90;;;1.80;;
67839;SDS011;54636;51.684;5.142;2023-07-29T12:31:56;3.80;;;1.58;;
67839;SDS011;54636;51.684;5.142;2023-07-29T12:34:24;2.45;;;1.73;;
67839;SDS011;54636;51.684;5.142;2023-07-29T12:36:51;2.45;;;2.28;;
67839;SDS011;54636;51.684;5.142;2023-07-29T12:39:17;1.98;;;1.88;;
67839;SDS011;54636;51.684;5.142;2023-07-29T12:41:51;3.88;;;3.13;;
67839;SDS011;54636;51.684;5.142;2023-07-29T12:44:18;3.45;;;2.50;;
67839;SDS011;54636;51.684;5.142;2023-07-29T12:46:43;4.55;;;2.60;;
67839;SDS011;54636;51.684;5.142;2023-07-29T12:49:09;2.80;;;2.58;;
67839;SDS011;54636;51.684;5.142;2023-07-29T12:51:35;3.85;;;2.03;;
67839;SDS011;54636;51.684;5.142;2023-07-29T12:54:01;6.18;;;2.80;;
67839;SDS011;54636;51.684;5.142;2023-07-29T12:56:28;2.53;;;2.33;;
67839;SDS011;54636;51.684;5.142;2023-07-29T12:58:53;2.10;;;2.00;;
67839;SDS011;54636;51.684;5.142;2023-07-29T13:01:19;7.57;;;1.95;;
67839;SDS011;54636;51.684;5.142;2023-07-29T13:03:44;2.03;;;1.90;;
67839;SDS011;54636;51.684;5.142;2023-07-29T13:06:10;1.80;;;1.70;;
67839;SDS011;54636;51.684;5.142;2023-07-29T13:08:36;2.08;;;1.77;;
67839;SDS011;54636;51.684;5.142;2023-07-29T13:11:01;2.13;;;2.03;;
67839;SDS011;54636;51.684;5.142;2023-07-29T13:13:28;1.90;;;1.80;;
67839;SDS011;54636;51.684;5.142;2023-07-29T13:15:53;6.10;;;2.10;;
67839;SDS011;54636;51.684;5.142;2023-07-29T13:18:19;1.33;;;1.13;;
67839;SDS011;54636;51.684;5.142;2023-07-29T13:20:46;3.08;;;1.40;;
67839;SDS011;54636;51.684;5.142;2023-07-29T13:23:11;1.65;;;1.48;;
67839;SDS011;54636;51.684;5.142;2023-07-29T13:25:37;1.42;;;1.33;;
67839;SDS011;54636;51.684;5.142;2023-07-29T13:28:05;2.45;;;1.40;;
67839;SDS011;54636;51.684;5.142;2023-07-29T13:30:30;1.60;;;1.50;;
67839;SDS011;54636;51.684;5.142;2023-07-29T13:32:56;2.65;;;1.30;;
67839;SDS011;54636;51.684;5.142;2023-07-29T13:35:21;1.40;;;1.30;;
67839;SDS011;54636;51.684;5.142;2023-07-29T13:37:47;0.95;;;0.95;;
67839;SDS011;54636;51.684;5.142;2023-07-29T13:40:12;3.65;;;1.23;;
67839;SDS011;54636;51.684;5.142;2023-07-29T13:42:37;1.92;;;1.33;;
67839;SDS011;54636;51.684;5.142;2023-07-29T13:45:03;1.02;;;1.02;;
67839;SDS011;54636;51.684;5.142;2023-07-29T13:47:29;1.30;;;1.20;;
67839;SDS011;54636;51.684;5.142;2023-07-29T13:49:54;1.45;;;1.10;;
67839;SDS011;54636;51.684;5.142;2023-07-29T13:52:19;2.15;;;0.93;;
67839;SDS011;54636;51.684;5.142;2023-07-29T13:54:45;1.20;;;1.20;;
67839;SDS011;54636;51.684;5.142;2023-07-29T13:57:10;0.98;;;0.88;;
67839;SDS011;54636;51.684;5.142;2023-07-29T13:59:36;1.42;;;1.05;;
67839;SDS011;54636;51.684;5.142;2023-07-29T14:02:07;2.65;;;1.02;;
67839;SDS011;54636;51.684;5.142;2023-07-29T14:04:32;1.15;;;1.10;;
67839;SDS011;54636;51.684;5.142;2023-07-29T14:06:58;4.40;;;1.20;;
67839;SDS011;54636;51.684;5.142;2023-07-29T14:09:24;1.10;;;1.10;;
67839;SDS011;54636;51.684;5.142;2023-07-29T14:11:50;2.65;;;1.30;;
67839;SDS011;54636;51.684;5.142;2023-07-29T14:14:16;1.10;;;1.10;;
67839;SDS011;54636;51.684;5.142;2023-07-29T14:16:41;2.35;;;1.10;;
67839;SDS011;54636;51.684;5.142;2023-07-29T14:19:07;1.25;;;1.10;;
67839;SDS011;54636;51.684;5.142;2023-07-29T14:21:32;1.23;;;1.13;;
67839;SDS011;54636;51.684;5.142;2023-07-29T14:23:58;2.63;;;1.35;;
67839;SDS011;54636;51.684;5.142;2023-07-29T14:26:23;1.58;;;1.48;;
67839;SDS011;54636;51.684;5.142;2023-07-29T14:28:49;1.35;;;1.25;;
67839;SDS011;54636;51.684;5.142;2023-07-29T14:31:15;1.05;;;1.02;;
67839;SDS011;54636;51.684;5.142;2023-07-29T14:33:42;1.50;;;1.40;;
67839;SDS011;54636;51.684;5.142;2023-07-29T14:36:10;2.47;;;1.30;;
67839;SDS011;54636;51.684;5.142;2023-07-29T14:38:36;2.63;;;1.60;;
67839;SDS011;54636;51.684;5.142;2023-07-29T14:41:02;1.77;;;1.10;;
67839;SDS011;54636;51.684;5.142;2023-07-29T14:43:30;1.08;;;1.08;;
67839;SDS011;54636;51.684;5.142;2023-07-29T14:45:56;1.40;;;1.30;;
67839;SDS011;54636;51.684;5.142;2023-07-29T14:48:21;1.30;;;1.30;;
67839;SDS011;54636;51.684;5.142;2023-07-29T14:50:47;1.40;;;1.30;;
67839;SDS011;54636;51.684;5.142;2023-07-29T14:53:13;2.15;;;1.15;;
67839;SDS011;54636;51.684;5.142;2023-07-29T14:55:38;1.48;;;1.48;;
67839;SDS011;54636;51.684;5.142;2023-07-29T14:58:04;1.45;;;1.30;;
67839;SDS011;54636;51.684;5.142;2023-07-29T15:00:29;1.50;;;1.40;;
67839;SDS011;54636;51.684;5.142;2023-07-29T15:02:55;1.20;;;1.20;;
67839;SDS011;54636;51.684;5.142;2023-07-29T15:05:20;1.38;;;1.27;;
67839;SDS011;54636;51.684;5.142;2023-07-29T15:07:46;1.40;;;1.30;;